createdAt,value
2022-11-18T00:00:55.194Z,7.35
2022-11-18T00:03:21.738Z,8.68
2022-11-18T00:05:55.651Z,6.43
2022-11-18T00:08:23.329Z,6.05
2022-11-18T00:10:49.680Z,5.47
2022-11-18T00:13:35.162Z,13.77
2022-11-18T00:16:03.711Z,7.63
2022-11-18T00:18:30.724Z,7.22
2022-11-18T00:21:02.216Z,7.78
2022-11-18T00:23:29.047Z,9.23
2022-11-18T00:25:55.479Z,8.02
2022-11-18T00:28:21.852Z,8.18
2022-11-18T00:30:48.240Z,9.65
2022-11-18T00:33:14.554Z,11.82
2022-11-18T00:35:40.893Z,10.23
2022-11-18T00:38:08.083Z,10.35
2022-11-18T00:40:34.383Z,9.45
2022-11-18T00:43:00.693Z,7.75
2022-11-18T00:45:27.080Z,12.85
2022-11-18T00:47:53.393Z,13.85
2022-11-18T00:50:19.805Z,15.40
2022-11-18T00:52:46.373Z,15.13
2022-11-18T00:55:12.714Z,15.60
2022-11-18T00:57:39.078Z,11.63
2022-11-18T01:00:05.998Z,11.65
2022-11-18T01:02:32.365Z,13.02
2022-11-18T01:04:58.667Z,14.13
2022-11-18T01:07:25.100Z,11.20
2022-11-18T01:09:51.525Z,12.18
2022-11-18T01:12:36.351Z,12.10
2022-11-18T01:15:02.833Z,11.25
2022-11-18T01:17:32.269Z,12.35
2022-11-18T01:19:59.029Z,13.32
2022-11-18T01:22:25.501Z,13.45
2022-11-18T01:24:51.815Z,11.52
2022-11-18T01:27:18.148Z,11.95
2022-11-18T01:29:44.486Z,12.50
2022-11-18T01:32:24.495Z,9.02
2022-11-18T01:34:51.789Z,16.75
2022-11-18T01:37:18.156Z,10.50
2022-11-18T01:39:44.499Z,10.35
2022-11-18T01:42:17.492Z,10.45
2022-11-18T01:44:58.114Z,10.00
2022-11-18T01:47:28.701Z,9.07
2022-11-18T01:49:55.197Z,10.07
2022-11-18T01:52:23.113Z,11.30
2022-11-18T01:54:55.411Z,9.30
2022-11-18T01:57:23.000Z,9.93
2022-11-18T01:59:51.831Z,9.60
2022-11-18T02:02:18.136Z,11.25
2022-11-18T02:04:48.447Z,10.43
2022-11-18T02:07:15.686Z,12.18
2022-11-18T02:09:43.081Z,11.65
2022-11-18T02:12:10.211Z,11.90
2022-11-18T02:14:40.894Z,16.08
2022-11-18T02:17:13.185Z,14.05
2022-11-18T02:20:17.098Z,14.05
2022-11-18T02:22:56.760Z,14.45
2022-11-18T02:25:44.825Z,15.27
2022-11-18T02:28:23.420Z,12.82
2022-11-18T02:30:57.704Z,14.25
2022-11-18T02:33:31.961Z,14.93
2022-11-18T02:36:19.339Z,16.23
2022-11-18T02:38:52.086Z,15.38
2022-11-18T02:41:26.301Z,14.88
2022-11-18T02:44:02.119Z,15.73
2022-11-18T02:49:03.365Z,16.77
2022-11-18T02:51:31.797Z,15.30
2022-11-18T02:54:05.121Z,16.73
2022-11-18T02:56:34.321Z,17.30
2022-11-18T02:59:00.843Z,16.88
2022-11-18T03:01:30.391Z,19.33
2022-11-18T03:03:56.908Z,21.33
2022-11-18T03:06:29.423Z,20.20
2022-11-18T03:09:21.187Z,23.02
2022-11-18T03:12:00.097Z,20.42
2022-11-18T03:14:41.440Z,19.55
2022-11-18T03:17:10.753Z,24.30
2022-11-18T03:19:58.718Z,18.65
2022-11-18T03:22:36.201Z,18.15
2022-11-18T03:25:21.146Z,19.45
2022-11-18T03:28:09.733Z,17.63
2022-11-18T03:30:40.605Z,15.95
2022-11-18T03:33:13.020Z,20.08
2022-11-18T03:35:43.002Z,18.25
2022-11-18T03:38:15.033Z,19.48
2022-11-18T03:40:48.500Z,20.20
2022-11-18T03:43:22.365Z,18.33
2022-11-18T03:45:52.030Z,21.15
2022-11-18T03:48:23.473Z,18.95
2022-11-18T03:51:06.314Z,20.65
2022-11-18T03:53:36.312Z,22.70
2022-11-18T03:56:15.822Z,21.48
2022-11-18T03:59:03.242Z,19.65
2022-11-18T04:01:37.524Z,18.95
2022-11-18T04:04:04.546Z,18.80
2022-11-18T04:06:47.478Z,18.25
2022-11-18T04:09:23.282Z,15.88
2022-11-18T04:12:04.401Z,17.35
2022-11-18T04:14:33.869Z,16.52
2022-11-18T04:17:00.657Z,16.02
2022-11-18T04:19:27.978Z,15.40
2022-11-18T04:21:54.339Z,16.05
2022-11-18T04:24:20.714Z,15.70
2022-11-18T04:26:47.011Z,19.25
2022-11-18T04:29:13.324Z,18.20
2022-11-18T04:31:39.708Z,15.98
2022-11-18T04:34:06.011Z,14.20
2022-11-18T04:36:32.332Z,17.23
2022-11-18T04:38:58.682Z,17.15
2022-11-18T04:41:44.969Z,15.23
2022-11-18T04:46:43.531Z,14.60
2022-11-18T04:49:11.773Z,14.77
2022-11-18T04:51:38.534Z,13.38
2022-11-18T04:54:05.232Z,13.25
2022-11-18T04:56:32.075Z,13.60
2022-11-18T04:59:00.724Z,16.27
2022-11-18T05:01:28.680Z,13.98
2022-11-18T05:03:55.480Z,17.63
2022-11-18T05:06:22.523Z,15.40
2022-11-18T05:08:49.569Z,19.98
2022-11-18T05:11:34.811Z,18.90
2022-11-18T05:14:01.336Z,19.20
2022-11-18T05:16:27.701Z,20.50
2022-11-18T05:18:54.093Z,22.75
2022-11-18T05:21:20.511Z,20.33
2022-11-18T05:23:46.811Z,22.45
2022-11-18T05:26:13.197Z,23.10
2022-11-18T05:28:39.702Z,23.80
2022-11-18T05:31:10.852Z,24.00
2022-11-18T05:33:38.005Z,20.90
2022-11-18T05:36:05.889Z,24.80
2022-11-18T05:38:33.844Z,26.65
2022-11-18T05:41:00.948Z,27.13
2022-11-18T05:43:28.361Z,31.45
2022-11-18T05:45:54.783Z,26.20
2022-11-18T05:48:21.536Z,31.65
2022-11-18T05:50:49.487Z,28.00
2022-11-18T05:53:17.093Z,29.08
2022-11-18T05:56:02.416Z,27.35
2022-11-18T05:58:29.926Z,28.13
2022-11-18T06:01:01.809Z,27.90
2022-11-18T06:03:32.925Z,28.23
2022-11-18T06:06:03.255Z,29.63
2022-11-18T06:08:35.974Z,28.10
2022-11-18T06:11:02.548Z,28.67
2022-11-18T06:13:37.701Z,30.38
2022-11-18T06:16:04.354Z,31.17
2022-11-18T06:18:32.917Z,28.42
2022-11-18T06:21:04.501Z,28.02
2022-11-18T06:23:35.165Z,28.67
2022-11-18T06:26:01.992Z,29.45
2022-11-18T06:28:29.627Z,29.85
2022-11-18T06:30:55.941Z,25.60
2022-11-18T06:33:22.235Z,27.33
2022-11-18T06:35:48.582Z,25.65
2022-11-18T06:38:14.892Z,27.73
2022-11-18T06:40:44.602Z,29.52
2022-11-18T06:43:30.505Z,28.08
2022-11-18T06:46:20.114Z,31.50
2022-11-18T06:48:46.798Z,25.17
2022-11-18T06:51:13.161Z,24.80
2022-11-18T06:53:39.558Z,26.20
2022-11-18T06:56:08.064Z,26.00
2022-11-18T06:58:35.934Z,22.95
2022-11-18T07:01:18.694Z,24.67
2022-11-18T07:03:46.266Z,21.65
2022-11-18T07:06:15.044Z,21.10
2022-11-18T07:08:42.475Z,19.17
2022-11-18T07:11:12.231Z,21.77
2022-11-18T07:13:43.329Z,24.33
2022-11-18T07:16:13.136Z,22.48
2022-11-18T07:18:41.673Z,24.15
2022-11-18T07:21:19.707Z,24.13
2022-11-18T07:23:46.222Z,22.98
2022-11-18T07:26:13.416Z,21.63
2022-11-18T07:28:40.261Z,23.23
2022-11-18T07:31:09.034Z,20.23
2022-11-18T07:33:36.489Z,22.05
2022-11-18T07:36:12.122Z,22.17
2022-11-18T07:38:39.237Z,20.60
2022-11-18T07:41:14.717Z,25.10
2022-11-18T07:43:41.510Z,20.90
2022-11-18T07:46:28.977Z,24.02
2022-11-18T07:48:57.506Z,20.70
2022-11-18T07:51:26.483Z,20.38
2022-11-18T07:53:53.317Z,24.77
2022-11-18T07:56:21.249Z,21.20
2022-11-18T07:58:48.148Z,21.42
2022-11-18T08:01:17.034Z,20.70
2022-11-18T08:03:44.170Z,22.83
2022-11-18T08:06:12.632Z,21.88
2022-11-18T08:08:39.305Z,21.40
2022-11-18T08:11:08.430Z,20.80
2022-11-18T08:13:35.617Z,21.67
2022-11-18T08:16:02.522Z,18.75
2022-11-18T08:18:30.800Z,19.05
2022-11-18T08:21:02.897Z,20.38
2022-11-18T08:23:33.133Z,21.73
2022-11-18T08:26:06.875Z,19.83
2022-11-18T08:28:34.012Z,18.58
2022-11-18T08:31:00.758Z,17.58
2022-11-18T08:33:27.085Z,18.10
2022-11-18T08:35:53.523Z,16.35
2022-11-18T08:40:48.376Z,14.65
2022-11-18T08:43:14.781Z,13.90
2022-11-18T08:45:41.542Z,14.45
2022-11-18T08:48:08.129Z,14.15
2022-11-18T08:50:34.476Z,13.80
2022-11-18T08:53:00.831Z,12.95
2022-11-18T08:55:27.156Z,12.88
2022-11-18T08:57:53.578Z,12.82
2022-11-18T09:00:20.032Z,13.50
2022-11-18T09:02:46.546Z,13.75
2022-11-18T09:05:12.862Z,13.27
2022-11-18T09:07:39.259Z,13.98
2022-11-18T09:10:06.051Z,11.93
2022-11-18T09:12:32.386Z,15.02
2022-11-18T09:15:15.109Z,16.25
2022-11-18T09:17:41.832Z,14.32
2022-11-18T09:20:08.771Z,13.05
2022-11-18T09:22:37.665Z,13.48
2022-11-18T09:25:04.206Z,15.10
2022-11-18T09:27:30.544Z,16.17
2022-11-18T09:29:56.861Z,15.05
2022-11-18T09:32:23.201Z,13.05
2022-11-18T09:34:49.535Z,14.38
2022-11-18T09:37:16.087Z,14.88
2022-11-18T09:39:42.513Z,12.68
2022-11-18T09:42:51.161Z,14.18
2022-11-18T09:45:28.304Z,12.65
2022-11-18T09:47:58.677Z,12.63
2022-11-18T09:55:55.805Z,13.75
2022-11-18T09:58:32.889Z,15.63
2022-11-18T10:00:59.601Z,13.57
2022-11-18T10:03:29.465Z,16.33
2022-11-18T10:06:03.533Z,15.27
2022-11-18T10:08:52.698Z,13.95
2022-11-18T10:11:23.861Z,13.45
2022-11-18T10:14:14.972Z,16.27
2022-11-18T10:16:56.619Z,12.63
2022-11-18T10:19:44.030Z,12.05
2022-11-18T10:22:22.636Z,12.18
2022-11-18T10:24:53.956Z,11.93
2022-11-18T10:27:26.934Z,13.20
2022-11-18T10:29:57.342Z,15.02
2022-11-18T10:32:23.889Z,13.73
2022-11-18T10:34:59.294Z,13.18
2022-11-18T10:38:05.828Z,14.90
2022-11-18T10:40:26.564Z,16.75
2022-11-18T10:42:53.115Z,15.45
2022-11-18T10:45:22.430Z,18.05
2022-11-18T10:48:10.099Z,16.85
2022-11-18T10:50:39.948Z,14.90
2022-11-18T10:53:32.172Z,15.18
2022-11-18T10:56:01.426Z,12.60
2022-11-18T10:58:31.185Z,13.15
2022-11-18T11:01:06.733Z,13.85
2022-11-18T11:03:37.480Z,16.88
2022-11-18T11:06:15.852Z,15.32
2022-11-18T11:09:00.294Z,16.10
2022-11-18T11:11:28.703Z,15.10
2022-11-18T11:14:01.607Z,17.02
2022-11-18T11:16:30.209Z,14.95
2022-11-18T11:19:04.069Z,14.70
2022-11-18T11:21:33.280Z,15.60
2022-11-18T11:23:59.672Z,13.30
2022-11-18T11:29:52.894Z,13.75
2022-11-18T11:32:48.589Z,14.73
2022-11-18T11:35:17.570Z,12.85
2022-11-18T11:37:43.856Z,15.32
2022-11-18T11:40:32.495Z,14.65
2022-11-18T11:43:26.846Z,16.00
2022-11-18T11:45:53.129Z,14.50
2022-11-18T11:48:40.399Z,12.88
2022-11-18T11:51:25.129Z,15.13
2022-11-18T11:54:23.173Z,14.52
2022-11-18T11:56:59.338Z,13.07
2022-11-18T11:59:45.061Z,13.85
2022-11-18T12:02:20.197Z,14.18
2022-11-18T12:04:52.274Z,15.15
2022-11-18T12:07:22.857Z,15.32
2022-11-18T12:10:08.467Z,14.95
2022-11-18T12:12:50.232Z,14.35
2022-11-18T12:15:29.243Z,13.27
2022-11-18T12:18:08.984Z,14.30
2022-11-18T12:20:42.067Z,13.20
2022-11-18T12:23:12.358Z,13.05
2022-11-18T12:25:47.773Z,12.07
2022-11-18T12:28:30.091Z,13.40
2022-11-18T12:31:18.057Z,12.65
2022-11-18T12:33:53.373Z,12.50
2022-11-18T12:36:40.005Z,13.57
2022-11-18T12:39:24.994Z,13.65
2022-11-18T12:42:17.374Z,15.45
2022-11-18T12:44:46.169Z,14.13
2022-11-18T12:47:14.400Z,16.85
2022-11-18T12:49:46.466Z,16.27
2022-11-18T12:52:31.210Z,15.88
2022-11-18T12:55:04.209Z,14.30
2022-11-18T12:57:34.639Z,15.48
2022-11-18T13:00:22.696Z,17.45
2022-11-18T13:03:03.418Z,13.65
2022-11-18T13:05:35.959Z,14.13
2022-11-18T13:08:13.975Z,15.40
2022-11-18T13:10:43.373Z,13.25
2022-11-18T13:13:32.789Z,13.65
2022-11-18T13:16:38.253Z,14.35
2022-11-18T13:19:05.928Z,13.45
2022-11-18T13:21:51.239Z,16.33
2022-11-18T13:24:20.268Z,16.00
2022-11-18T13:26:53.411Z,15.93
2022-11-18T13:29:54.356Z,14.88
2022-11-18T13:32:27.425Z,16.90
2022-11-18T13:35:05.375Z,17.08
2022-11-18T13:37:34.428Z,15.43
2022-11-18T13:40:01.064Z,16.27
2022-11-18T13:42:31.540Z,16.15
2022-11-18T13:44:59.722Z,14.82
2022-11-18T13:47:47.869Z,12.95
2022-11-18T13:50:22.631Z,13.88
2022-11-18T13:53:20.108Z,12.98
2022-11-18T13:55:49.318Z,13.77
2022-11-18T13:58:18.648Z,13.70
2022-11-18T14:00:57.249Z,14.10
2022-11-18T14:03:35.972Z,12.98
2022-11-18T14:06:02.624Z,13.57
2022-11-18T14:08:37.179Z,12.63
2022-11-18T14:11:05.432Z,13.80
2022-11-18T14:13:34.483Z,14.10
2022-11-18T14:16:04.210Z,12.43
2022-11-18T14:18:33.056Z,12.18
2022-11-18T14:21:00.732Z,13.60
2022-11-18T14:23:37.424Z,12.60
2022-11-18T14:26:06.150Z,12.25
2022-11-18T14:28:36.745Z,11.70
2022-11-18T14:31:25.063Z,11.60
2022-11-18T14:34:20.969Z,11.73
2022-11-18T14:36:48.123Z,12.77
2022-11-18T14:39:27.429Z,11.52
2022-11-18T14:41:55.127Z,10.52
2022-11-18T14:44:24.236Z,8.90
2022-11-18T14:47:23.023Z,10.50
2022-11-18T14:49:49.399Z,9.13
2022-11-18T14:52:16.306Z,10.95
2022-11-18T14:54:42.646Z,9.95
2022-11-18T14:57:15.566Z,11.07
2022-11-18T14:59:42.380Z,10.65
2022-11-18T15:02:17.174Z,11.23
2022-11-18T15:04:43.757Z,11.15
2022-11-18T15:07:18.586Z,13.80
2022-11-18T15:09:49.407Z,10.63
2022-11-18T15:12:15.806Z,10.90
2022-11-18T15:14:42.106Z,11.43
2022-11-18T15:17:12.657Z,10.65
2022-11-18T15:19:40.551Z,12.73
2022-11-18T15:22:07.405Z,12.50
2022-11-18T15:24:33.731Z,15.75
2022-11-18T15:27:04.925Z,10.63
2022-11-18T15:29:31.529Z,9.45
2022-11-18T15:31:57.955Z,11.00
2022-11-18T15:34:25.080Z,11.63
2022-11-18T15:36:51.565Z,9.32
2022-11-18T15:39:18.034Z,9.95
2022-11-18T15:41:44.546Z,9.63
2022-11-18T15:44:11.580Z,9.40
2022-11-18T15:46:38.629Z,11.25
2022-11-18T15:49:07.335Z,11.25
2022-11-18T15:51:35.967Z,10.40
2022-11-18T15:54:02.298Z,8.55
2022-11-18T15:56:30.441Z,8.85
2022-11-18T15:59:05.908Z,10.48
2022-11-18T16:01:35.061Z,9.18
2022-11-18T16:04:02.245Z,9.18
2022-11-18T16:06:28.845Z,8.68
2022-11-18T16:09:00.055Z,11.88
2022-11-18T16:11:46.973Z,9.95
2022-11-18T16:14:15.336Z,9.50
2022-11-18T16:16:43.596Z,9.05
2022-11-18T16:19:12.676Z,9.18
2022-11-18T16:21:53.819Z,8.18
2022-11-18T16:24:23.237Z,8.95
2022-11-18T16:26:50.279Z,9.60
2022-11-18T16:29:17.968Z,8.40
2022-11-18T16:31:50.718Z,9.88
2022-11-18T16:34:18.947Z,7.43
2022-11-18T16:36:52.252Z,10.10
2022-11-18T16:39:30.983Z,8.73
2022-11-18T16:42:07.458Z,7.90
2022-11-18T16:44:34.915Z,8.50
2022-11-18T16:47:07.686Z,8.48
2022-11-18T16:52:03.550Z,8.23
2022-11-18T16:54:31.944Z,7.38
2022-11-18T16:56:59.643Z,9.50
2022-11-18T16:59:28.819Z,9.15
2022-11-18T17:01:57.110Z,8.73
2022-11-18T17:04:24.664Z,8.82
2022-11-18T17:06:52.094Z,9.00
2022-11-18T17:09:21.031Z,10.18
2022-11-18T17:11:48.435Z,10.50
2022-11-18T17:14:14.833Z,10.57
2022-11-18T17:16:41.728Z,13.40
2022-11-18T17:19:13.096Z,12.32
2022-11-18T17:21:39.454Z,11.55
2022-11-18T17:24:06.684Z,12.65
2022-11-18T17:26:33.144Z,13.63
2022-11-18T17:28:59.828Z,14.07
2022-11-18T17:31:26.291Z,14.10
2022-11-18T17:33:55.080Z,14.75
2022-11-18T17:36:23.786Z,16.25
2022-11-18T17:38:52.186Z,15.77
2022-11-18T17:41:39.602Z,18.15
2022-11-18T17:44:08.217Z,19.42
2022-11-18T17:46:38.314Z,19.10
2022-11-18T17:49:07.585Z,20.05
2022-11-18T17:51:34.027Z,21.75
2022-11-18T17:54:00.403Z,20.95
2022-11-18T17:56:26.816Z,21.52
2022-11-18T17:58:53.312Z,22.52
2022-11-18T18:01:21.504Z,21.27
2022-11-18T18:03:48.539Z,22.30
2022-11-18T18:06:15.591Z,23.33
2022-11-18T18:08:42.795Z,22.13
2022-11-18T18:11:17.115Z,25.73
2022-11-18T18:14:02.971Z,21.67
2022-11-18T18:16:31.199Z,20.92
2022-11-18T18:18:58.686Z,20.60
2022-11-18T18:21:25.479Z,20.88
2022-11-18T18:23:52.013Z,18.23
2022-11-18T18:26:18.752Z,20.70
2022-11-18T18:28:45.377Z,22.23
2022-11-18T18:31:14.075Z,20.48
2022-11-18T18:33:41.189Z,21.63
2022-11-18T18:36:10.054Z,19.27
2022-11-18T18:38:38.014Z,17.15
2022-11-18T18:41:08.233Z,16.88
2022-11-18T18:43:34.690Z,15.90
2022-11-18T18:46:21.915Z,18.02
2022-11-18T18:48:48.440Z,16.13
2022-11-18T18:51:14.871Z,15.07
2022-11-18T18:53:41.322Z,16.55
2022-11-18T18:56:08.058Z,17.48
2022-11-18T18:58:34.750Z,15.60
2022-11-18T19:01:09.279Z,17.73
2022-11-18T19:03:36.179Z,18.25
2022-11-18T19:09:14.900Z,16.48
2022-11-18T19:12:00.371Z,15.88
2022-11-18T19:14:28.055Z,16.98
2022-11-18T19:16:55.289Z,16.90
2022-11-18T19:19:44.374Z,17.50
2022-11-18T19:22:13.390Z,16.60
2022-11-18T19:24:50.233Z,15.70
2022-11-18T19:27:20.369Z,17.77
2022-11-18T19:29:47.197Z,18.60
2022-11-18T19:32:13.936Z,18.52
2022-11-18T19:34:40.418Z,23.50
2022-11-18T19:37:06.982Z,20.98
2022-11-18T19:39:34.517Z,20.83
2022-11-18T19:42:01.171Z,21.80
2022-11-18T19:44:27.571Z,20.38
2022-11-18T19:46:53.973Z,21.75
2022-11-18T19:49:20.897Z,22.58
2022-11-18T19:51:47.746Z,20.75
2022-11-18T19:54:14.138Z,20.02
2022-11-18T19:56:40.795Z,21.48
2022-11-18T19:59:07.212Z,20.77
2022-11-18T20:01:33.683Z,20.75
2022-11-18T20:04:05.216Z,21.83
2022-11-18T20:06:34.176Z,20.40
2022-11-18T20:09:00.572Z,21.27
2022-11-18T20:11:28.006Z,22.75
2022-11-18T20:13:54.473Z,20.52
2022-11-18T20:16:23.496Z,21.20
2022-11-18T20:19:13.327Z,21.80
2022-11-18T20:21:43.547Z,22.52
2022-11-18T20:24:15.807Z,20.75
2022-11-18T20:30:29.676Z,18.80
2022-11-18T20:32:57.800Z,21.02
2022-11-18T20:35:24.106Z,22.15
2022-11-18T20:37:50.430Z,23.50
2022-11-18T20:40:16.781Z,23.23
2022-11-18T20:43:01.750Z,22.90
2022-11-18T20:45:28.134Z,21.52
2022-11-18T20:47:54.489Z,22.45
2022-11-18T20:50:20.884Z,23.35
2022-11-18T20:52:47.229Z,31.13
2022-11-18T20:55:13.697Z,25.17
2022-11-18T20:57:40.047Z,26.52
2022-11-18T21:00:07.105Z,25.33
2022-11-18T21:02:33.473Z,25.88
2022-11-18T21:04:59.816Z,25.80
2022-11-18T21:07:26.234Z,26.70
2022-11-18T21:09:52.705Z,25.48
2022-11-18T21:12:19.152Z,28.42
2022-11-18T21:14:45.480Z,28.10
2022-11-18T21:17:11.819Z,26.33
2022-11-18T21:19:38.164Z,26.13
2022-11-18T21:22:04.595Z,25.58
2022-11-18T21:24:32.815Z,27.15
2022-11-18T21:27:01.421Z,28.17
2022-11-18T21:29:30.105Z,28.33
2022-11-18T21:32:03.623Z,31.15
2022-11-18T21:34:30.555Z,30.23
2022-11-18T21:36:57.157Z,28.48
2022-11-18T21:39:24.985Z,29.50
2022-11-18T21:41:55.596Z,29.63
2022-11-18T21:44:23.082Z,28.17
2022-11-18T21:46:49.612Z,28.85
2022-11-18T21:49:15.926Z,32.08
2022-11-18T21:51:43.936Z,30.95
2022-11-18T21:54:11.628Z,32.13
2022-11-18T21:56:37.970Z,32.05
2022-11-18T21:59:04.919Z,32.67
2022-11-18T22:01:33.222Z,30.45
2022-11-18T22:04:02.076Z,32.42
2022-11-18T22:06:30.278Z,28.98
2022-11-18T22:08:57.416Z,29.25
2022-11-18T22:11:25.468Z,31.50
2022-11-18T22:13:52.835Z,29.55
2022-11-18T22:16:22.286Z,30.30
2022-11-18T22:18:56.015Z,32.75
2022-11-18T22:21:26.138Z,34.38
2022-11-18T22:23:52.515Z,31.75
2022-11-18T22:26:20.785Z,32.90
2022-11-18T22:28:52.094Z,32.88
2022-11-18T22:31:20.997Z,30.88
2022-11-18T22:33:51.382Z,35.45
2022-11-18T22:36:20.759Z,30.58
2022-11-18T22:38:48.063Z,29.50
2022-11-18T22:41:37.705Z,34.30
2022-11-18T22:44:07.607Z,30.92
2022-11-18T22:46:39.124Z,31.33
2022-11-18T22:49:07.239Z,32.95
2022-11-18T22:51:34.061Z,30.95
2022-11-18T22:54:30.862Z,32.33
2022-11-18T22:56:46.990Z,34.22
2022-11-18T22:59:13.491Z,31.80
2022-11-18T23:01:40.073Z,32.75
2022-11-18T23:04:06.955Z,32.42
2022-11-18T23:06:33.353Z,34.60
2022-11-18T23:08:59.698Z,30.88
2022-11-18T23:11:44.877Z,31.75
2022-11-18T23:14:11.825Z,28.98
2022-11-18T23:16:40.397Z,30.70
2022-11-18T23:19:13.149Z,31.27
2022-11-18T23:21:40.522Z,31.17
2022-11-18T23:24:09.834Z,31.40
2022-11-18T23:26:36.542Z,32.03
2022-11-18T23:29:02.939Z,32.47
2022-11-18T23:31:29.246Z,30.33
2022-11-18T23:33:57.367Z,32.60
2022-11-18T23:36:25.174Z,31.20
2022-11-18T23:38:52.820Z,31.70
2022-11-18T23:41:20.082Z,29.05
2022-11-18T23:43:48.243Z,30.42
2022-11-18T23:46:16.563Z,30.65
2022-11-18T23:48:43.694Z,28.67
2022-11-18T23:51:12.756Z,30.35
2022-11-18T23:53:39.708Z,30.50
2022-11-18T23:56:12.386Z,30.63
2022-11-18T23:58:40.495Z,34.40
